• Join FlightAware (Why Join?)
  • Login
  • US Flag 
01:19PM EDT


 

Airport Tracker/Info


-or-


 

Live Flight TrackerFlight Track Log ✈ AIP5038 ✈ 18-Sep-2013 ✈ KMSO - KBIL

Flight Track Log - Related Links

Times and Time Zones

All times are in EDT time to prevent confusion due to time zone crossing. See the AIP5038 flight status page for this flight to view local times or setup timezone preferences in your user account.

Time Position Orientation Groundspeed Altitude Reporting Facility
EDT Latitude Longitude Course Direction KTS MPH feet Rate Location/Type
03:26AM 46.8994 -114.0769 110° East 138 159 6,700  Level Salt Lake Center
03:27AM 46.8894 -114.0194 104° East 148 170 8,700 1,800 Climbing Salt Lake Center
03:28AM 46.8814 -113.9519 100° East 159 183 10,400 1,740 Climbing Salt Lake Center
03:29AM 46.8200 -113.5390 101° East  Level Estimated
03:29AM 46.8708 -113.8878 104° East 161 185 12,200  Level Salt Lake Center
03:30AM 46.8027 -113.4476 105° East  Level FlightAware Approximate
03:30AM 46.8614 -113.8206 102° East 167 192 13,900  Level Salt Lake Center
03:31AM 46.7863 -113.3560 108° East  Level Estimated
03:31AM 46.8458 -113.7558 109° East 171 197 15,300  Level Salt Lake Center
03:32AM 46.7699 -113.2643 110° East  Level Estimated
03:32AM 46.8331 -113.6897 106° East 169 194 16,700  Level Salt Lake Center
03:33AM 46.8167 -113.6158 108° East 190 219 17,100 180 Climbing Salt Lake Center
03:34AM 46.7981 -113.5222 106° East 236 272 17,100 -120 Level Salt Lake Center
03:35AM 46.7811 -113.4258 104° East 245 282 16,900 -120 Descending Salt Lake Center
03:36AM 46.7594 -113.3328 109° East 244 281 16,900  Level Salt Lake Center
03:37AM 46.7511 -113.2433 98° East 241 277 16,900  Level Salt Lake Center
03:38AM 46.7353 -113.1483 104° East 242 278 16,900 120 Level Salt Lake Center
03:39AM 46.7186 -113.0550 105° East 240 276 17,200  Climbing Salt Lake Center
03:40AM 46.7072 -112.9597 100° East 239 275 17,000 -180 Descending Salt Lake Center
03:41AM 46.6889 -112.8606 105° East 239 275 16,900 -60 Descending Salt Lake Center
03:42AM 46.6672 -112.7714 109° East 234 269 16,900 60 Level Salt Lake Center
03:43AM 46.6506 -112.6781 105° East 238 274 17,100 60 Climbing Salt Lake Center
03:44AM 46.6333 -112.5844 105° East 240 276 17,100 -60 Level Salt Lake Center
03:45AM 46.6172 -112.4878 104° East 245 282 17,000 -120 Descending Salt Lake Center
03:46AM 46.6061 -112.3894 99° East 249 287 16,900 -60 Descending Salt Lake Center
03:47AM 46.5819 -112.2975 111° Southeast 245 282 16,900  Level Salt Lake Center
03:48AM 46.5589 -112.2083 111° Southeast 239 275 16,900  Level Salt Lake Center
03:49AM 46.5392 -112.1150 107° East 241 277 16,900 120 Level Salt Lake Center
03:50AM 46.5206 -112.0203 106° East 244 281 17,200  Climbing Salt Lake Center
03:51AM 46.4992 -111.9286 109° East 241 277 17,000 -180 Descending Salt Lake Center
03:52AM 46.4811 -111.8367 106° East 240 276 16,900 -60 Descending Salt Lake Center
03:53AM 46.4614 -111.7411 107° East 246 283 16,900  Level Salt Lake Center
03:54AM 46.4447 -111.6425 104° East 251 289 16,900 -60 Level Salt Lake Center
03:55AM 46.4256 -111.5344 104° East 250 288 16,800  Descending Salt Lake Center
03:56AM 46.4075 -111.4356 105° East 249 287 16,900  Climbing Salt Lake Center
03:57AM 46.3908 -111.3453 105° East 248 285 16,900 60 Level Salt Lake Center
03:58AM 46.3689 -111.2481 108° East 249 287 17,100  Climbing Salt Lake Center
03:59AM 46.3508 -111.1508 105° East 248 285 16,900 -120 Descending Salt Lake Center
04:00AM 46.3303 -111.0536 107° East 249 287 16,900  Level Salt Lake Center
04:01AM 46.3156 -110.9703 104° East 249 287 16,900  Level Salt Lake Center
04:02AM 46.2950 -110.8742 107° East 249 287 16,900 60 Level Salt Lake Center
04:03AM 46.2764 -110.7772 105° East 249 287 17,100 60 Climbing Salt Lake Center
04:04AM 46.2550 -110.6811 108° East 252 290 17,100 -120 Level Salt Lake Center
04:05AM 46.2350 -110.5861 107° East 250 288 16,900 -120 Descending Salt Lake Center
04:06AM 46.2169 -110.4878 105° East 252 290 16,900  Level Salt Lake Center
04:07AM 46.1953 -110.3933 108° East 251 289 16,900  Level Salt Lake Center
04:08AM 46.1739 -110.3000 108° East 247 284 16,900 60 Level Salt Lake Center
04:09AM 46.1533 -110.2044 107° East 250 288 17,100 60 Climbing Salt Lake Center
04:10AM 46.1350 -110.1103 106° East 247 284 17,100 -120 Level Salt Lake Center
04:11AM 46.1128 -110.0156 109° East 250 288 16,900  Descending Salt Lake Center
04:12AM 46.0917 -109.9203 108° East 250 288 17,200 120 Climbing Salt Lake Center
04:13AM 46.0694 -109.8064 106° East 257 296 17,200 -60 Level Salt Lake Center
04:14AM 46.0469 -109.7108 109° East 258 297 17,100 -60 Descending Salt Lake Center
04:15AM 46.0278 -109.6136 106° East 256 295 17,100 -120 Level Salt Lake Center
04:16AM 46.0067 -109.5172 107° East 256 295 16,900 -480 Descending Salt Lake Center
04:17AM 45.9894 -109.4125 103° East 271 312 16,200 -900 Descending Salt Lake Center
04:18AM 45.9656 -109.3067 108° East 279 321 15,200 -1,260 Descending Salt Lake Center
04:19AM 45.9422 -109.1886 106° East 285 328 13,700 -1,680 Descending Salt Lake Center
04:20AM 45.9208 -109.0892 107° East 269 310 11,900 -1,920 Descending Salt Lake Center
04:21AM 45.9000 -109.0042 109° East 235 270 9,900 -1,800 Descending Salt Lake Center
04:22AM 45.8803 -108.9181 108° East 230 265 8,400 -1,440 Descending Salt Lake Center
04:23AM 45.8628 -108.8350 107° East 223 257 7,000 -1,080 Descending Salt Lake Center
04:24AM 45.8450 -108.7594 109° East 208 239 6,300 -540 Descending Salt Lake Center
04:25AM 45.8258 -108.6961 113° Southeast 180 207 6,000  Descending Salt Lake Center
04:26AM 45.8017 -108.6314 118° Southeast 176 203 6,300  Climbing Salt Lake Center
04:27AM 45.7733 -108.5761 126° Southeast 177 204 6,000 -480 Descending Salt Lake Center
04:28AM 45.7628 -108.5175 104° East 162 186 5,400 -900 Descending Salt Lake Center
04:29AM 45.7928 -108.4886 34° Northeast 142 163 4,300 -900 Descending Salt Lake Center
04:30AM 45.8042 -108.5239 295° West 97 112 3,700 -600 Descending Salt Lake Center